Northfield Center, Ohio
Current Conditions -  °F | °C
As of 3:53 AM on Thursday 23 Oct 2014 (Local Time) from KBKL Reporting Station
Few Clouds Few Clouds  
Wind Chill: 52°   Ceiling: Unl
Heat Index: 52°   Visibility: 10mi
Dew Point: 46°   Wind: 13mph
Humidity: 80%   Direction: 360°N
Pressure: 30.18"   Gusts: NA
Location:  41.3128°N, 81.5476°W
Report Text: KBKL 230753Z 36011KT 10SM FEW014 11/08 A3018 RMK AO2 SLP222 T01110078
Loading
Personal Weather Stations






























Interactive Weather Map
Tropical Storm Tracking
New forecast layout! Learn more

10-Day Weather Forecast

Advertisements
Track Severe Weather on mobile